createdAt,value
2023-05-02T00:01:02.728Z,91.53
2023-05-02T00:02:43.276Z,91.84
2023-05-02T00:04:23.681Z,91.8
2023-05-02T00:06:04.037Z,92.02
2023-05-02T00:07:44.385Z,92.04
2023-05-02T00:09:24.838Z,91.65
2023-05-02T00:11:05.143Z,91.33
2023-05-02T00:12:45.480Z,91.42
2023-05-02T00:14:25.911Z,91.21
2023-05-02T00:16:06.405Z,91.66
2023-05-02T00:17:46.899Z,91.56
2023-05-02T00:19:27.232Z,91.72
2023-05-02T00:21:07.739Z,91.32
2023-05-02T00:22:48.186Z,90.92
2023-05-02T00:24:28.575Z,91.1
2023-05-02T00:26:08.975Z,90.47
2023-05-02T00:27:49.389Z,90.51
2023-05-02T00:29:29.785Z,90.93
2023-05-02T00:31:10.268Z,90.72
2023-05-02T00:32:50.659Z,90.77
2023-05-02T00:34:31.088Z,91.38
2023-05-02T00:36:11.497Z,91.97
2023-05-02T00:37:51.842Z,92.45
2023-05-02T00:39:32.139Z,92.9
2023-05-02T00:41:12.539Z,93.09
2023-05-02T00:42:52.856Z,93.13
2023-05-02T00:44:33.342Z,92.82
2023-05-02T00:46:13.793Z,92.74
2023-05-02T00:47:54.172Z,92.54
2023-05-02T00:49:34.582Z,92.65
2023-05-02T00:51:14.949Z,92.7
2023-05-02T00:52:55.317Z,92.14
2023-05-02T00:54:35.840Z,91.78
2023-05-02T00:56:16.226Z,92.84
2023-05-02T00:57:56.637Z,93.37
2023-05-02T00:59:37.058Z,93.12
2023-05-02T01:01:17.431Z,92.77
2023-05-02T01:02:57.994Z,92.38
2023-05-02T01:04:38.325Z,92.61
2023-05-02T01:06:18.819Z,92.54
2023-05-02T01:07:59.198Z,92.27
2023-05-02T01:09:39.584Z,92.22
2023-05-02T01:11:20.036Z,92.74
2023-05-02T01:13:00.411Z,92.58
2023-05-02T01:14:40.675Z,92.15
2023-05-02T01:16:21.096Z,92.07
2023-05-02T01:18:01.380Z,92.68
2023-05-02T01:19:41.652Z,93.04
2023-05-02T01:21:21.961Z,93.44
2023-05-02T01:23:02.252Z,93.34
2023-05-02T01:24:42.712Z,93.39
2023-05-02T01:26:23.213Z,93.48
2023-05-02T01:28:03.616Z,93.44
2023-05-02T01:29:43.970Z,93.48
2023-05-02T01:31:24.373Z,93.38
2023-05-02T01:33:04.868Z,93.71
2023-05-02T01:34:45.204Z,93.47
2023-05-02T01:36:25.544Z,93.73
2023-05-02T01:38:05.910Z,93.8
2023-05-02T01:39:46.297Z,94.04
2023-05-02T01:41:26.618Z,94.29
2023-05-02T01:43:07.032Z,94.45
2023-05-02T01:44:47.357Z,94.35
2023-05-02T01:46:27.866Z,94.4
2023-05-02T01:48:08.179Z,95.04
2023-05-02T01:49:48.629Z,95.26
2023-05-02T01:51:29.007Z,95.36
2023-05-02T01:53:09.409Z,95.61
2023-05-02T01:54:49.829Z,95.69
2023-05-02T01:56:30.285Z,95.87
2023-05-02T01:58:10.625Z,95.93
2023-05-02T01:59:50.981Z,95.92
2023-05-02T02:01:31.418Z,96.15
2023-05-02T02:03:11.710Z,96.09
2023-05-02T02:04:52.150Z,96.15
2023-05-02T02:06:32.576Z,96.16
2023-05-02T02:08:12.916Z,96.15
2023-05-02T02:09:53.320Z,96.23
2023-05-02T02:11:33.801Z,96.17
2023-05-02T02:13:14.267Z,96.04
2023-05-02T02:14:54.587Z,95.95
2023-05-02T02:16:34.952Z,95.78
2023-05-02T02:18:15.411Z,95.92
2023-05-02T02:19:55.765Z,96.22
2023-05-02T02:21:36.235Z,96.22
2023-05-02T02:23:16.660Z,96.2
2023-05-02T02:24:57.010Z,96.18
2023-05-02T02:26:37.593Z,96.19
2023-05-02T02:28:18.015Z,96.24
2023-05-02T02:29:58.660Z,96.26
2023-05-02T02:31:38.824Z,96.26
2023-05-02T02:33:19.123Z,96.1
2023-05-02T02:34:59.424Z,95.86
2023-05-02T02:36:39.819Z,95.61
2023-05-02T02:38:20.221Z,95.5
2023-05-02T02:40:00.942Z,95.5
2023-05-02T02:41:41.019Z,95.46
2023-05-02T02:43:21.387Z,95.42
2023-05-02T02:45:01.824Z,95.47
2023-05-02T02:46:42.267Z,95.75
2023-05-02T02:48:22.626Z,95.87
2023-05-02T02:50:03.028Z,96.23
2023-05-02T02:51:43.413Z,96.42
2023-05-02T02:53:23.881Z,96.51
2023-05-02T02:55:04.186Z,96.56
2023-05-02T02:56:44.628Z,96.48
2023-05-02T02:58:25.003Z,96.57
2023-05-02T03:00:05.444Z,96.57
2023-05-02T03:01:45.838Z,96.36
2023-05-02T03:03:26.365Z,96.29
2023-05-02T03:05:06.654Z,96.28
2023-05-02T03:06:47.023Z,96.37
2023-05-02T03:08:27.396Z,96.51
2023-05-02T03:10:07.821Z,96.51
2023-05-02T03:11:48.149Z,96.57
2023-05-02T03:13:28.532Z,96.68
2023-05-02T03:15:08.842Z,96.68
2023-05-02T03:16:49.270Z,96.72
2023-05-02T03:18:29.721Z,96.82
2023-05-02T03:20:10.143Z,96.96
2023-05-02T03:21:50.482Z,97
2023-05-02T03:23:30.870Z,97.06
2023-05-02T03:25:11.334Z,97.13
2023-05-02T03:26:51.725Z,97.19
2023-05-02T03:28:32.106Z,97.16
2023-05-02T03:30:12.533Z,96.91
2023-05-02T03:31:52.931Z,96.6
2023-05-02T03:33:33.349Z,96.37
2023-05-02T03:35:13.757Z,96.37
2023-05-02T03:36:54.176Z,96.11
2023-05-02T03:38:34.568Z,95.93
2023-05-02T03:40:14.982Z,95.61
2023-05-02T03:41:55.417Z,95.58
2023-05-02T03:43:35.774Z,95.49
2023-05-02T03:45:16.318Z,95.37
2023-05-02T03:46:56.677Z,95.42
2023-05-02T03:48:36.962Z,95.55
2023-05-02T03:50:17.276Z,95.71
2023-05-02T03:51:57.540Z,95.77
2023-05-02T03:53:37.873Z,95.53
2023-05-02T03:55:18.176Z,95.24
2023-05-02T03:56:58.475Z,94.87
2023-05-02T03:58:38.775Z,94.12
2023-05-02T04:00:19.108Z,93.95
2023-05-02T04:01:59.568Z,93.65
2023-05-02T04:03:40.038Z,93.66
2023-05-02T04:05:20.276Z,93.75
2023-05-02T04:07:00.707Z,93.86
2023-05-02T04:08:41.139Z,93.67
2023-05-02T04:10:21.551Z,93.54
2023-05-02T04:12:02.033Z,93.6
2023-05-02T04:13:42.373Z,93.63
2023-05-02T04:15:22.823Z,93.5
2023-05-02T04:17:03.314Z,93.41
2023-05-02T04:18:43.810Z,93.66
2023-05-02T04:20:24.227Z,93.86
2023-05-02T04:22:04.600Z,93.95
2023-05-02T04:23:44.984Z,93.61
2023-05-02T04:25:25.391Z,93.25
2023-05-02T04:27:05.761Z,93.32
2023-05-02T04:28:46.101Z,92.89
2023-05-02T04:30:26.528Z,92.81
2023-05-02T04:32:06.915Z,92.8
2023-05-02T04:33:47.246Z,92.51
2023-05-02T04:35:27.594Z,92.53
2023-05-02T04:37:08.021Z,92.48
2023-05-02T04:38:48.526Z,92.25
2023-05-02T04:40:28.941Z,92.14
2023-05-02T04:42:09.346Z,91.99
2023-05-02T04:43:49.696Z,91.96
2023-05-02T04:45:30.125Z,91.85
2023-05-02T04:47:10.472Z,91.85
2023-05-02T04:48:50.865Z,92.12
2023-05-02T04:50:31.368Z,91.71
2023-05-02T04:52:11.814Z,91.43
2023-05-02T04:53:52.290Z,91.52
2023-05-02T04:55:32.755Z,92.09
2023-05-02T04:57:13.127Z,91.49
2023-05-02T04:58:53.537Z,91.62
2023-05-02T05:00:33.959Z,91.42
2023-05-02T05:02:14.468Z,91.42
2023-05-02T05:03:54.911Z,91.11
2023-05-02T05:05:35.150Z,90.95
2023-05-02T05:07:15.454Z,90.61
2023-05-02T05:08:55.721Z,90.33
2023-05-02T05:10:36.007Z,90.22
2023-05-02T05:12:16.351Z,90.03
2023-05-02T05:13:56.678Z,90.16
2023-05-02T05:15:36.989Z,89.54
2023-05-02T05:17:17.348Z,89.86
2023-05-02T05:18:57.779Z,89.64
2023-05-02T05:20:38.119Z,88.97
2023-05-02T05:22:18.423Z,89.45
2023-05-02T05:23:58.868Z,88.85
2023-05-02T05:25:39.298Z,88.95
2023-05-02T05:27:19.667Z,88.61
2023-05-02T05:29:00.172Z,88.43
2023-05-02T05:30:40.575Z,88.76
2023-05-02T05:32:21.049Z,89.38
2023-05-02T05:34:01.569Z,88.98
2023-05-02T05:35:41.976Z,89.18
2023-05-02T05:37:22.408Z,89.28
2023-05-02T05:39:02.823Z,89.02
2023-05-02T05:40:43.255Z,89.43
2023-05-02T05:42:23.734Z,89.2
2023-05-02T05:44:04.115Z,89.62
2023-05-02T05:45:44.496Z,89.85
2023-05-02T05:47:25.009Z,89.48
2023-05-02T05:49:05.203Z,89.63
2023-05-02T05:50:45.579Z,90.07
2023-05-02T05:52:25.960Z,90.23
2023-05-02T05:54:06.360Z,90.29
2023-05-02T05:55:46.827Z,90.57
2023-05-02T05:57:27.321Z,91.04
2023-05-02T05:59:07.704Z,90.58
2023-05-02T06:00:48.099Z,90.79
2023-05-02T06:02:28.643Z,91.14
2023-05-02T06:04:09.043Z,91.48
2023-05-02T06:05:49.423Z,91.36
2023-05-02T06:07:29.830Z,91.28
2023-05-02T06:09:10.211Z,91.32
2023-05-02T06:10:50.655Z,91.42
2023-05-02T06:12:31.102Z,91.46
2023-05-02T06:14:11.486Z,91.66
2023-05-02T06:15:51.848Z,91.39
2023-05-02T06:17:32.223Z,91.41
2023-05-02T06:19:12.613Z,91.45
2023-05-02T06:20:53.040Z,91.65
2023-05-02T06:22:33.440Z,91.92
2023-05-02T06:24:13.830Z,92.02
2023-05-02T06:25:54.350Z,91.88
2023-05-02T06:27:34.755Z,91.77
2023-05-02T06:29:15.106Z,92.17
2023-05-02T06:30:55.530Z,92.26
2023-05-02T06:32:36.017Z,92.55
2023-05-02T06:34:16.294Z,92.29
2023-05-02T06:35:56.589Z,92.22
2023-05-02T06:37:36.915Z,91.79
2023-05-02T06:39:17.379Z,91.65
2023-05-02T06:40:57.793Z,91.07
2023-05-02T06:42:38.203Z,91.04
2023-05-02T06:44:18.622Z,90.67
2023-05-02T06:45:59.079Z,90.42
2023-05-02T06:47:39.458Z,89.84
2023-05-02T06:49:19.789Z,89.89
2023-05-02T06:51:00.223Z,89.16
2023-05-02T06:52:40.684Z,88.66
2023-05-02T06:54:21.112Z,89.18
2023-05-02T06:56:01.504Z,89.26
2023-05-02T06:57:41.927Z,89.62
2023-05-02T06:59:22.512Z,90.18
2023-05-02T07:01:02.847Z,90.79
2023-05-02T07:02:43.171Z,91.02
2023-05-02T07:04:23.639Z,91.12
2023-05-02T07:06:03.979Z,91.74
2023-05-02T07:07:44.340Z,91.98
2023-05-02T07:09:24.808Z,91.82
2023-05-02T07:11:05.328Z,92.13
2023-05-02T07:12:45.783Z,92.2
2023-05-02T07:14:26.262Z,92.23
2023-05-02T07:16:06.686Z,92.11
2023-05-02T07:17:47.097Z,91.85
2023-05-02T07:19:27.469Z,92.28
2023-05-02T07:21:07.924Z,92.19
2023-05-02T07:22:48.389Z,92.3
2023-05-02T07:24:28.858Z,92.79
2023-05-02T07:26:09.283Z,92.8
2023-05-02T07:27:49.725Z,92.81
2023-05-02T07:29:30.111Z,93.14
2023-05-02T07:31:10.550Z,93.5
2023-05-02T07:32:50.989Z,93.68
2023-05-02T07:34:31.307Z,94.2
2023-05-02T07:36:11.712Z,94.35
2023-05-02T07:37:52.252Z,94.21
2023-05-02T07:39:32.686Z,93.96
2023-05-02T07:41:13.090Z,91.05
2023-05-02T07:42:53.541Z,89.85
2023-05-02T07:44:33.908Z,89.74
2023-05-02T07:46:14.622Z,89.61
2023-05-02T07:47:54.936Z,89.84
2023-05-02T07:49:35.363Z,90.5
2023-05-02T07:51:15.824Z,90.38
2023-05-02T07:52:56.160Z,90.94
2023-05-02T07:54:36.650Z,91.13
2023-05-02T07:56:17.056Z,91.13
2023-05-02T07:57:57.507Z,90.86
2023-05-02T07:59:37.960Z,91
2023-05-02T08:01:18.257Z,90.58
2023-05-02T08:02:58.787Z,90.25
2023-05-02T08:04:39.145Z,90.03
2023-05-02T08:06:19.581Z,90.06
2023-05-02T08:07:59.904Z,88.55
2023-05-02T08:09:40.306Z,87.97
2023-05-02T08:11:21.976Z,86.39
2023-05-02T08:13:01.125Z,86.67
2023-05-02T08:14:41.515Z,86
2023-05-02T08:16:21.996Z,87.37
2023-05-02T08:18:02.529Z,87.33
2023-05-02T08:19:42.711Z,86.66
2023-05-02T08:21:23.135Z,85.55
2023-05-02T08:23:03.511Z,86.24
2023-05-02T08:24:43.941Z,86.17
2023-05-02T08:26:24.355Z,87.18
2023-05-02T08:28:04.841Z,87.2
2023-05-02T08:29:45.206Z,87.21
2023-05-02T08:31:25.724Z,87.64
2023-05-02T08:33:06.102Z,86.87
2023-05-02T08:34:46.418Z,87.57
2023-05-02T08:36:26.831Z,87.53
2023-05-02T08:38:07.229Z,87.46
2023-05-02T08:39:47.637Z,88.54
2023-05-02T08:41:28.020Z,88.62
2023-05-02T08:43:08.443Z,88.49
2023-05-02T08:44:48.861Z,88.12
2023-05-02T08:46:29.298Z,87.27
2023-05-02T08:48:09.701Z,88.09
2023-05-02T08:49:50.049Z,87.75
2023-05-02T08:51:30.406Z,88.38
2023-05-02T08:53:10.954Z,87.13
2023-05-02T08:54:51.150Z,87.82
2023-05-02T08:56:31.576Z,87.96
2023-05-02T08:58:13.823Z,88.54
2023-05-02T08:59:52.489Z,87.17
2023-05-02T09:01:32.949Z,86.01
2023-05-02T09:03:13.399Z,86.5
2023-05-02T09:04:53.754Z,86.04
2023-05-02T09:06:34.215Z,86.25
2023-05-02T09:08:14.640Z,86.73
2023-05-02T09:09:55.109Z,85.16
2023-05-02T09:11:35.513Z,84.33
2023-05-02T09:13:15.994Z,82.96
2023-05-02T09:14:56.421Z,81.71
2023-05-02T09:16:36.905Z,82.01
2023-05-02T09:18:17.293Z,81.79
2023-05-02T09:19:57.683Z,80.63
2023-05-02T09:21:38.119Z,80
2023-05-02T09:23:18.501Z,79.33
2023-05-02T09:24:59.185Z,79.24
2023-05-02T09:26:39.476Z,80.84
2023-05-02T09:28:19.858Z,80.06
2023-05-02T09:30:00.230Z,79.41
2023-05-02T09:33:20.993Z,78.08
2023-05-02T09:35:01.711Z,78.6
2023-05-02T09:36:41.867Z,77.21
2023-05-02T09:38:22.269Z,77.49
2023-05-02T09:40:02.712Z,78.33
2023-05-02T09:41:43.043Z,77.45
2023-05-02T09:43:23.402Z,76.72
2023-05-02T09:45:03.810Z,76.68
2023-05-02T09:46:44.286Z,77.92
2023-05-02T09:48:24.675Z,77.49
2023-05-02T09:50:05.184Z,76.76
2023-05-02T09:51:45.403Z,77.02
2023-05-02T09:53:25.810Z,73.83
2023-05-02T09:55:06.338Z,74.65
2023-05-02T09:56:46.736Z,75.41
2023-05-02T09:58:27.139Z,75.76
2023-05-02T10:00:07.602Z,76.09
2023-05-02T10:01:48.020Z,77.04
2023-05-02T10:03:28.530Z,77.51
2023-05-02T10:05:08.980Z,77.43
2023-05-02T10:06:49.445Z,78.35
2023-05-02T10:08:29.884Z,78.62
2023-05-02T10:10:10.282Z,78
2023-05-02T10:11:50.748Z,78.65
2023-05-02T10:13:31.194Z,78.26
2023-05-02T10:15:11.562Z,78.22
2023-05-02T10:16:52.010Z,78.48
2023-05-02T10:18:32.419Z,78.89
2023-05-02T10:20:12.831Z,77.99
2023-05-02T10:21:53.233Z,77.45
2023-05-02T10:23:33.700Z,78.45
2023-05-02T10:25:14.137Z,78.15
2023-05-02T10:26:54.531Z,78.02
2023-05-02T10:28:34.961Z,77.68
2023-05-02T10:30:15.371Z,78.63
2023-05-02T10:31:55.732Z,76.88
2023-05-02T10:33:36.115Z,77.76
2023-05-02T10:35:16.556Z,78.18
2023-05-02T10:36:56.858Z,79.44
2023-05-02T10:38:37.155Z,78.05
2023-05-02T10:40:17.438Z,76.33
2023-05-02T10:41:57.736Z,76.79
2023-05-02T10:43:38.077Z,76.95
2023-05-02T10:45:18.464Z,76.02
2023-05-02T10:46:58.900Z,76.46
2023-05-02T10:48:39.283Z,76.92
2023-05-02T10:50:19.721Z,77.72
2023-05-02T10:52:00.181Z,77.62
2023-05-02T10:53:40.657Z,77.52
2023-05-02T10:55:21.104Z,76.87
2023-05-02T10:57:01.524Z,77.04
2023-05-02T10:58:41.908Z,78.45
2023-05-02T11:00:22.314Z,77.1
2023-05-02T11:02:04.019Z,77.69
2023-05-02T11:03:43.122Z,77.01
2023-05-02T11:05:23.660Z,77.36
2023-05-02T11:07:04.098Z,77.33
2023-05-02T11:08:44.523Z,77.3
2023-05-02T11:10:24.986Z,77.74
2023-05-02T11:12:05.344Z,78.95
2023-05-02T11:13:45.747Z,79.04
2023-05-02T11:15:26.170Z,77.55
2023-05-02T11:17:06.576Z,78.51
2023-05-02T11:18:46.949Z,78.81
2023-05-02T11:20:27.403Z,77.68
2023-05-02T11:22:07.910Z,76.8
2023-05-02T11:23:48.415Z,76.63
2023-05-02T11:25:29.291Z,76.97
2023-05-02T11:27:09.332Z,76.07
2023-05-02T11:28:49.720Z,75.62
2023-05-02T11:30:30.199Z,75.53
2023-05-02T11:32:10.494Z,76.03
2023-05-02T11:33:50.982Z,76.26
2023-05-02T11:35:31.360Z,76.16
2023-05-02T11:37:11.680Z,75.7
2023-05-02T11:38:51.974Z,76.79
2023-05-02T11:40:32.414Z,76.57
2023-05-02T11:42:12.850Z,77.07
2023-05-02T11:43:53.274Z,76.09
2023-05-02T11:45:33.688Z,76.26
2023-05-02T11:47:14.131Z,76.95
2023-05-02T11:48:54.586Z,76.47
2023-05-02T11:50:34.960Z,75.4
2023-05-02T11:52:15.359Z,77.89
2023-05-02T11:53:55.778Z,76.4
2023-05-02T11:55:36.199Z,74.24
2023-05-02T11:57:16.624Z,74.68
2023-05-02T11:58:57.055Z,73.68
2023-05-02T12:00:37.436Z,74.47
2023-05-02T12:02:17.941Z,73.16
2023-05-02T12:03:58.400Z,73.4
2023-05-02T12:05:38.851Z,72.09
2023-05-02T12:07:19.316Z,72.22
2023-05-02T12:08:59.744Z,71.89
2023-05-02T12:10:40.202Z,71.43
2023-05-02T12:12:20.550Z,71.42
2023-05-02T12:14:00.934Z,71.07
2023-05-02T12:15:41.351Z,71.6
2023-05-02T12:17:21.726Z,72.29
2023-05-02T12:19:02.152Z,71.29
2023-05-02T12:20:42.495Z,71.96
2023-05-02T12:22:22.888Z,70.79
2023-05-02T12:24:03.313Z,71.57
2023-05-02T12:25:43.711Z,71.78
2023-05-02T12:27:24.161Z,72.03
2023-05-02T12:29:04.630Z,72.15
2023-05-02T12:30:45.020Z,72.06
2023-05-02T12:32:27.435Z,71.65
2023-05-02T12:34:05.844Z,72.49
2023-05-02T12:35:46.262Z,72.53
2023-05-02T12:37:26.667Z,72.23
2023-05-02T12:39:07.088Z,73.46
2023-05-02T12:40:47.435Z,73.14
2023-05-02T12:42:27.740Z,73.38
2023-05-02T12:44:08.223Z,74.04
2023-05-02T12:45:48.344Z,73.62
2023-05-02T12:47:28.690Z,73.83
2023-05-02T12:49:08.955Z,73.81
2023-05-02T12:50:49.257Z,73.78
2023-05-02T12:52:29.573Z,73.22
2023-05-02T12:54:09.874Z,73.39
2023-05-02T12:55:50.172Z,73.23
2023-05-02T12:57:30.487Z,74.46
2023-05-02T12:59:10.841Z,73.93
2023-05-02T13:00:51.196Z,75.12
2023-05-02T13:02:31.666Z,73.97
2023-05-02T13:04:12.040Z,72.74
2023-05-02T13:05:52.408Z,73.95
2023-05-02T13:07:32.715Z,72.84
2023-05-02T13:09:13.031Z,72.02
2023-05-02T13:10:53.471Z,73.08
2023-05-02T13:12:33.917Z,72.9
2023-05-02T13:14:14.335Z,71.45
2023-05-02T13:15:54.706Z,71.96
2023-05-02T13:17:35.324Z,73.02
2023-05-02T13:19:15.557Z,71.64
2023-05-02T13:20:55.972Z,70.68
2023-05-02T13:22:36.352Z,71.24
2023-05-02T13:24:16.852Z,70.95
2023-05-02T13:25:57.241Z,72.01
2023-05-02T13:27:37.684Z,71.55
2023-05-02T13:29:18.180Z,71.26
2023-05-02T13:30:58.595Z,70.8
2023-05-02T13:32:38.997Z,69.6
2023-05-02T13:34:19.467Z,69.09
2023-05-02T13:35:59.688Z,68.65
2023-05-02T13:37:40.001Z,68.88
2023-05-02T13:39:20.370Z,69.36
2023-05-02T13:41:00.754Z,69.91
2023-05-02T13:42:41.183Z,69.65
2023-05-02T13:44:21.583Z,69.41
2023-05-02T13:46:02.084Z,69.97
2023-05-02T13:47:42.525Z,69.5
2023-05-02T13:49:22.913Z,70.01
2023-05-02T13:51:03.298Z,68.42
2023-05-02T13:52:43.753Z,68.5
2023-05-02T13:54:24.158Z,68.28
2023-05-02T13:56:04.641Z,68.75
2023-05-02T13:57:44.988Z,68.47
2023-05-02T13:59:25.503Z,67.89
2023-05-02T14:01:05.859Z,68.15
2023-05-02T14:02:46.286Z,66.27
2023-05-02T14:04:26.544Z,67.57
2023-05-02T14:06:07.038Z,66.84
2023-05-02T14:07:47.410Z,67.08
2023-05-02T14:09:27.775Z,66.97
2023-05-02T14:11:08.162Z,66.7
2023-05-02T14:12:48.427Z,67.15
2023-05-02T14:14:28.746Z,67.27
2023-05-02T14:16:09.082Z,66.46
2023-05-02T14:17:49.459Z,65.32
2023-05-02T14:19:29.707Z,66.38
2023-05-02T14:21:10.174Z,65.7
2023-05-02T14:22:50.636Z,66.03
2023-05-02T14:24:31.108Z,65.39
2023-05-02T14:26:11.435Z,65.93
2023-05-02T14:27:51.913Z,66.14
2023-05-02T14:29:32.334Z,64.17
2023-05-02T14:31:12.742Z,64.7
2023-05-02T14:32:53.130Z,65.25
2023-05-02T14:34:33.553Z,64.21
2023-05-02T14:36:13.949Z,64.37
2023-05-02T14:37:54.395Z,64.2
2023-05-02T14:39:34.785Z,63.36
2023-05-02T14:41:15.182Z,62.45
2023-05-02T14:42:55.661Z,63.51
2023-05-02T14:44:36.121Z,63.1
2023-05-02T14:46:16.502Z,61.73
2023-05-02T14:47:56.927Z,61.16
2023-05-02T14:49:37.315Z,60.7
2023-05-02T14:51:17.690Z,59.76
2023-05-02T14:52:58.114Z,59.05
2023-05-02T14:54:38.482Z,59.89
2023-05-02T14:56:18.960Z,59.11
2023-05-02T14:57:59.318Z,59.74
2023-05-02T14:59:39.782Z,58.04
2023-05-02T15:01:20.246Z,57.94
2023-05-02T15:03:00.738Z,58.3
2023-05-02T15:04:41.180Z,55.75
2023-05-02T15:06:21.476Z,56.8
2023-05-02T15:08:01.841Z,56.31
2023-05-02T15:09:42.259Z,56.04
2023-05-02T15:11:22.628Z,54.8
2023-05-02T15:13:03.056Z,52.46
2023-05-02T15:14:43.525Z,52.98
2023-05-02T15:16:24.055Z,52.62
2023-05-02T15:18:04.341Z,52.4
2023-05-02T15:19:44.727Z,52.39
2023-05-02T15:21:25.069Z,53.41
2023-05-02T15:23:05.433Z,52.96
2023-05-02T15:24:45.818Z,53.12
2023-05-02T15:26:26.211Z,53.25
2023-05-02T15:28:06.692Z,53.06
2023-05-02T15:29:47.129Z,51.94
2023-05-02T15:31:27.574Z,51.96
2023-05-02T15:33:08.004Z,49.42
2023-05-02T15:34:48.408Z,49.67
2023-05-02T15:36:28.917Z,50.21
2023-05-02T15:38:09.335Z,49.64
2023-05-02T15:39:49.642Z,49.82
2023-05-02T15:41:30.039Z,50.62
2023-05-02T15:43:10.453Z,51.24
2023-05-02T15:44:50.927Z,51.89
2023-05-02T15:46:31.500Z,51.19
2023-05-02T15:48:11.904Z,51.17
2023-05-02T15:49:52.249Z,51.63
2023-05-02T15:51:32.676Z,51.72
2023-05-02T15:53:13.378Z,51.18
2023-05-02T15:54:53.773Z,50.91
2023-05-02T15:56:34.201Z,52.03
2023-05-02T15:58:14.579Z,52.63
2023-05-02T15:59:55.021Z,52.77
2023-05-02T16:01:35.408Z,53.51
2023-05-02T16:03:15.966Z,53.78
2023-05-02T16:04:56.222Z,54.36
2023-05-02T16:06:36.760Z,53.63
2023-05-02T16:08:17.077Z,52.9
2023-05-02T16:09:57.474Z,51.39
2023-05-02T16:11:37.914Z,49.74
2023-05-02T16:13:18.294Z,50.33
2023-05-02T16:14:58.738Z,51.49
2023-05-02T16:16:39.212Z,51.96
2023-05-02T16:18:19.657Z,52.92
2023-05-02T16:20:00.397Z,51.95
2023-05-02T16:21:40.566Z,50.64
2023-05-02T16:23:21.024Z,51.73
2023-05-02T16:25:01.483Z,51.91
2023-05-02T16:26:41.902Z,53.53
2023-05-02T16:28:22.326Z,53.17
2023-05-02T16:30:03.018Z,53.59
2023-05-02T16:31:44.680Z,53.74
2023-05-02T16:33:23.508Z,53.68
2023-05-02T16:35:03.871Z,54.7
2023-05-02T16:36:44.283Z,55.58
2023-05-02T16:38:24.721Z,55.77
2023-05-02T16:40:06.007Z,55.48
2023-05-02T16:41:45.566Z,55.59
2023-05-02T16:43:26.032Z,55.58
2023-05-02T16:45:06.368Z,54.94
2023-05-02T16:46:46.912Z,55.47
2023-05-02T16:48:27.251Z,55.94
2023-05-02T16:50:07.674Z,56.68
2023-05-02T16:51:48.076Z,56.51
2023-05-02T16:53:28.593Z,55.02
2023-05-02T16:55:09.060Z,56.74
2023-05-02T16:56:49.486Z,57.26
2023-05-02T16:58:29.931Z,56.19
2023-05-02T17:00:10.352Z,55.18
2023-05-02T17:01:50.753Z,56.36
2023-05-02T17:03:31.189Z,55.3
2023-05-02T17:05:11.636Z,55.91
2023-05-02T17:06:52.074Z,56.21
2023-05-02T17:08:32.516Z,56.42
2023-05-02T17:10:12.854Z,55.53
2023-05-02T17:11:53.215Z,56.31
2023-05-02T17:13:33.610Z,55.93
2023-05-02T17:15:13.963Z,57.1
2023-05-02T17:16:54.440Z,57.21
2023-05-02T17:18:34.815Z,58.46
2023-05-02T17:20:15.185Z,57.58
2023-05-02T17:21:55.574Z,58.12
2023-05-02T17:23:35.963Z,57.9
2023-05-02T17:25:16.415Z,58.77
2023-05-02T17:26:56.888Z,57.74
2023-05-02T17:28:37.166Z,56.67
2023-05-02T17:30:17.588Z,57.18
2023-05-02T17:31:57.995Z,55.49
2023-05-02T17:33:38.402Z,55.09
2023-05-02T17:35:18.755Z,56.25
2023-05-02T17:36:59.265Z,52.68
2023-05-02T17:38:39.729Z,53.01
2023-05-02T17:40:20.160Z,53.63
2023-05-02T17:42:00.606Z,52.45
2023-05-02T17:43:41.060Z,52.27
2023-05-02T17:45:21.486Z,54.27
2023-05-02T17:47:01.893Z,53.85
2023-05-02T17:48:42.358Z,53.8
2023-05-02T17:50:22.837Z,53.23
2023-05-02T17:52:03.256Z,53.16
2023-05-02T17:53:43.672Z,54.53
2023-05-02T17:55:24.093Z,54.92
2023-05-02T17:57:04.419Z,54.08
2023-05-02T17:58:44.874Z,55.13
2023-05-02T18:00:25.251Z,55.27
2023-05-02T18:02:07.097Z,55.89
2023-05-02T18:03:46.177Z,56.16
2023-05-02T18:05:26.524Z,57.58
2023-05-02T18:07:06.946Z,57.49
2023-05-02T18:08:47.315Z,57.8
2023-05-02T18:10:27.767Z,58.16
2023-05-02T18:12:08.154Z,59.13
2023-05-02T18:13:48.549Z,58.77
2023-05-02T18:15:28.936Z,59.49
2023-05-02T18:17:10.075Z,60.24
2023-05-02T18:18:49.649Z,59.43
2023-05-02T18:20:30.088Z,59.13
2023-05-02T18:22:10.484Z,60.12
2023-05-02T18:23:50.936Z,60.4
2023-05-02T18:25:31.391Z,60.11
2023-05-02T18:27:11.744Z,60.95
2023-05-02T18:28:52.219Z,61.04
2023-05-02T18:30:32.620Z,61.96
2023-05-02T18:32:12.934Z,60.22
2023-05-02T18:33:53.343Z,61.19
2023-05-02T18:35:33.796Z,61.21
2023-05-02T18:37:14.276Z,62.58
2023-05-02T18:38:54.695Z,62.61
2023-05-02T18:40:35.122Z,61.79
2023-05-02T18:42:15.491Z,62.43
2023-05-02T18:43:57.035Z,62.75
2023-05-02T18:45:36.361Z,62.64
2023-05-02T18:47:16.664Z,63.46
2023-05-02T18:48:57.096Z,63.23
2023-05-02T18:50:37.455Z,63.67
2023-05-02T18:52:17.855Z,63.9
2023-05-02T18:53:58.251Z,65.33
2023-05-02T18:55:38.613Z,66.9
2023-05-02T18:57:18.932Z,69.44
2023-05-02T18:58:59.301Z,69.69
2023-05-02T19:00:39.769Z,70.35
2023-05-02T19:02:20.287Z,72.14
2023-05-02T19:04:00.749Z,70.65
2023-05-02T19:05:41.128Z,70.04
2023-05-02T19:07:21.519Z,69.89
2023-05-02T19:09:01.878Z,70.48
2023-05-02T19:10:42.326Z,70.96
2023-05-02T19:12:22.719Z,71.46
2023-05-02T19:14:03.180Z,71.76
2023-05-02T19:15:43.551Z,72.48
2023-05-02T19:17:23.955Z,73.15
2023-05-02T19:19:04.271Z,75.23
2023-05-02T19:20:44.730Z,74.8
2023-05-02T19:22:25.161Z,74.78
2023-05-02T19:24:05.507Z,74.02
2023-05-02T19:25:46.018Z,75.16
2023-05-02T19:27:26.454Z,75.69
2023-05-02T19:29:06.795Z,76.17
2023-05-02T19:30:47.206Z,77.11
2023-05-02T19:32:27.580Z,78.94
2023-05-02T19:34:08.007Z,77.43
2023-05-02T19:35:48.426Z,77.72
2023-05-02T19:37:28.845Z,74.76
2023-05-02T19:39:09.290Z,74.17
2023-05-02T19:40:49.676Z,74.89
2023-05-02T19:42:30.095Z,76.64
2023-05-02T19:44:10.588Z,76.29
2023-05-02T19:45:50.900Z,75.35
2023-05-02T19:47:31.242Z,75.62
2023-05-02T19:49:11.542Z,75.68
2023-05-02T19:50:51.959Z,75.87
2023-05-02T19:52:32.375Z,76.32
2023-05-02T19:54:12.829Z,76.47
2023-05-02T19:55:53.330Z,76.83
2023-05-02T19:57:33.704Z,77.06
2023-05-02T19:59:14.040Z,78.09
2023-05-02T20:00:54.532Z,78.26
2023-05-02T20:02:34.903Z,78.48
2023-05-02T20:04:15.218Z,78.94
2023-05-02T20:05:55.561Z,78.88
2023-05-02T20:07:35.838Z,79.75
2023-05-02T20:09:16.212Z,81.3
2023-05-02T20:10:56.668Z,81.91
2023-05-02T20:12:37.108Z,82.96
2023-05-02T20:14:17.527Z,83.49
2023-05-02T20:15:57.960Z,83.74
2023-05-02T20:17:38.384Z,83.84
2023-05-02T20:19:20.012Z,83.5
2023-05-02T20:20:59.212Z,84.38
2023-05-02T20:22:39.549Z,85.06
2023-05-02T20:24:20.046Z,85.2
2023-05-02T20:26:00.456Z,86.16
2023-05-02T20:27:40.981Z,86.54
2023-05-02T20:29:21.408Z,87.41
2023-05-02T20:31:01.872Z,87.7
2023-05-02T20:32:42.347Z,86.92
2023-05-02T20:34:22.691Z,86.59
2023-05-02T20:36:03.021Z,85.91
2023-05-02T20:37:43.417Z,85.79
2023-05-02T20:39:23.948Z,85.62
2023-05-02T20:41:04.302Z,86.13
2023-05-02T20:42:44.728Z,86.45
2023-05-02T20:44:25.240Z,87.03
2023-05-02T20:46:05.618Z,86.43
2023-05-02T20:47:46.012Z,86.29
2023-05-02T20:49:26.387Z,85.68
2023-05-02T20:51:06.788Z,86.42
2023-05-02T20:52:47.229Z,86.93
2023-05-02T20:54:27.577Z,87.03
2023-05-02T20:56:08.011Z,86.92
2023-05-02T20:57:48.441Z,87.13
2023-05-02T20:59:28.800Z,86.7
2023-05-02T21:01:09.262Z,86.67
2023-05-02T21:02:49.921Z,86.76
2023-05-02T21:04:30.019Z,86.86
2023-05-02T21:06:10.473Z,86.8
2023-05-02T21:07:50.854Z,86.32
2023-05-02T21:09:31.284Z,86.05
2023-05-02T21:11:13.440Z,86.04
2023-05-02T21:12:52.126Z,86.54
2023-05-02T21:14:32.543Z,86.42
2023-05-02T21:16:13.013Z,86.26
2023-05-02T21:17:53.394Z,85.96
2023-05-02T21:19:33.678Z,85.99
2023-05-02T21:21:13.994Z,87.01
2023-05-02T21:22:54.441Z,87.88
2023-05-02T21:24:34.897Z,88.49
2023-05-02T21:26:15.255Z,88.69
2023-05-02T21:27:55.654Z,88.76
2023-05-02T21:29:36.054Z,88.84
2023-05-02T21:31:16.541Z,88.49
2023-05-02T21:32:56.954Z,88.3
2023-05-02T21:34:37.393Z,88.24
2023-05-02T21:36:17.792Z,88.45
2023-05-02T21:37:58.287Z,89.49
2023-05-02T21:39:38.735Z,90.06